createdAt,value
2022-11-16T00:02:05.422Z,69.66
2022-11-16T00:04:34.382Z,69.69
2022-11-16T00:07:03.863Z,69.76
2022-11-16T00:09:34.340Z,69.60
2022-11-16T00:12:04.142Z,69.76
2022-11-16T00:14:33.959Z,69.67
2022-11-16T00:17:03.597Z,69.86
2022-11-16T00:19:32.654Z,69.71
2022-11-16T00:22:01.911Z,69.63
2022-11-16T00:24:30.930Z,69.71
2022-11-16T00:27:01.670Z,69.54
2022-11-16T00:29:30.550Z,69.73
2022-11-16T00:31:59.844Z,69.99
2022-11-16T00:34:28.762Z,69.92
2022-11-16T00:36:58.091Z,69.77
2022-11-16T00:39:26.927Z,69.71
2022-11-16T00:41:56.288Z,69.83
2022-11-16T00:44:26.652Z,69.81
2022-11-16T00:46:55.919Z,69.65
2022-11-16T00:49:24.845Z,70.18
2022-11-16T00:51:54.147Z,70.00
2022-11-16T00:54:23.442Z,69.97
2022-11-16T00:56:52.740Z,69.63
2022-11-16T00:59:21.684Z,69.92
2022-11-16T01:01:52.414Z,69.74
2022-11-16T01:04:21.369Z,70.11
2022-11-16T01:06:50.717Z,70.25
2022-11-16T01:09:19.767Z,69.67
2022-11-16T01:12:06.649Z,69.87
2022-11-16T01:14:35.606Z,69.84
2022-11-16T01:17:06.267Z,69.82
2022-11-16T01:19:35.160Z,69.92
2022-11-16T01:22:04.551Z,69.85
2022-11-16T01:24:33.535Z,69.72
2022-11-16T01:27:02.808Z,69.64
2022-11-16T01:29:31.908Z,69.77
2022-11-16T01:32:01.309Z,70.04
2022-11-16T01:34:31.738Z,69.84
2022-11-16T01:37:01.124Z,70.01
2022-11-16T01:39:30.070Z,69.48
2022-11-16T01:41:59.455Z,69.88
2022-11-16T01:44:47.076Z,69.62
2022-11-16T01:47:17.079Z,69.99
2022-11-16T01:49:47.971Z,70.06
2022-11-16T01:52:18.661Z,69.88
2022-11-16T01:54:48.158Z,69.97
2022-11-16T01:57:18.109Z,70.19
2022-11-16T01:59:47.624Z,69.72
2022-11-16T02:02:17.012Z,69.94
2022-11-16T02:04:47.741Z,69.90
2022-11-16T02:07:18.028Z,69.93
2022-11-16T02:09:55.478Z,69.79
2022-11-16T02:12:30.704Z,69.91
2022-11-16T02:15:14.431Z,69.75
2022-11-16T02:17:45.590Z,69.55
2022-11-16T02:20:30.528Z,69.57
2022-11-16T02:23:05.901Z,69.68
2022-11-16T02:25:36.054Z,69.45
2022-11-16T02:28:09.997Z,69.51
2022-11-16T02:30:40.364Z,69.75
2022-11-16T02:33:10.363Z,69.81
2022-11-16T02:35:40.320Z,69.67
2022-11-16T02:38:11.346Z,69.58
2022-11-16T02:40:40.733Z,69.42
2022-11-16T02:43:10.682Z,69.63
2022-11-16T02:45:42.093Z,69.60
2022-11-16T02:48:12.629Z,69.38
2022-11-16T02:50:41.551Z,69.44
2022-11-16T02:53:10.812Z,69.05
2022-11-16T02:55:39.718Z,69.26
2022-11-16T02:58:10.619Z,68.94
2022-11-16T03:00:43.731Z,68.92
2022-11-16T03:03:18.106Z,68.59
2022-11-16T03:05:47.913Z,69.00
2022-11-16T03:08:19.267Z,68.83
2022-11-16T03:11:06.037Z,68.46
2022-11-16T03:13:35.466Z,68.82
2022-11-16T03:16:05.954Z,68.78
2022-11-16T03:18:36.862Z,68.83
2022-11-16T03:21:07.054Z,68.77
2022-11-16T03:23:36.356Z,68.81
2022-11-16T03:26:06.485Z,68.88
2022-11-16T03:28:36.633Z,68.99
2022-11-16T03:31:07.309Z,68.86
2022-11-16T03:33:38.707Z,68.97
2022-11-16T03:36:09.018Z,69.16
2022-11-16T03:38:38.570Z,68.70
2022-11-16T03:41:08.585Z,68.57
2022-11-16T03:43:38.135Z,68.69
2022-11-16T03:46:07.480Z,68.83
2022-11-16T03:48:38.665Z,68.95
2022-11-16T03:51:07.852Z,68.98
2022-11-16T03:53:37.131Z,68.82
2022-11-16T03:56:06.220Z,68.77
2022-11-16T03:58:35.655Z,68.86
2022-11-16T04:01:04.857Z,69.21
2022-11-16T04:03:34.073Z,69.36
2022-11-16T04:06:22.026Z,69.07
2022-11-16T04:09:08.407Z,68.65
2022-11-16T04:11:54.683Z,68.86
2022-11-16T04:14:42.006Z,68.92
2022-11-16T04:17:29.460Z,68.89
2022-11-16T04:20:16.329Z,69.04
2022-11-16T04:23:05.199Z,69.05
2022-11-16T04:25:35.386Z,69.25
2022-11-16T04:28:16.291Z,68.94
2022-11-16T04:31:03.356Z,69.25
2022-11-16T04:33:49.823Z,69.28
2022-11-16T04:36:36.483Z,68.90
2022-11-16T04:39:06.827Z,68.81
2022-11-16T04:41:53.545Z,68.96
2022-11-16T04:44:27.311Z,68.84
2022-11-16T04:47:07.229Z,68.85
2022-11-16T04:49:36.110Z,68.39
2022-11-16T04:52:05.492Z,68.19
2022-11-16T04:54:35.789Z,68.17
2022-11-16T04:57:05.005Z,68.26
2022-11-16T04:59:33.916Z,68.31
2022-11-16T05:02:10.809Z,67.98
2022-11-16T05:04:40.604Z,67.66
2022-11-16T05:07:11.246Z,67.99
2022-11-16T05:09:43.075Z,67.51
2022-11-16T05:12:14.889Z,67.75
2022-11-16T05:14:43.822Z,67.44
2022-11-16T05:17:13.307Z,67.84
2022-11-16T05:19:59.440Z,67.65
2022-11-16T05:22:28.873Z,67.83
2022-11-16T05:24:59.124Z,67.03
2022-11-16T05:27:28.693Z,66.43
2022-11-16T05:29:57.601Z,67.04
2022-11-16T05:32:27.801Z,67.05
2022-11-16T05:34:56.712Z,66.61
2022-11-16T05:37:26.773Z,66.60
2022-11-16T05:39:57.076Z,66.77
2022-11-16T05:42:27.818Z,66.91
2022-11-16T05:44:56.711Z,66.54
2022-11-16T05:47:25.944Z,66.39
2022-11-16T05:49:54.936Z,66.54
2022-11-16T05:52:24.233Z,66.55
2022-11-16T05:54:53.062Z,66.61
2022-11-16T05:57:22.218Z,66.39
2022-11-16T05:59:52.465Z,66.59
2022-11-16T06:02:21.762Z,66.63
2022-11-16T06:04:50.756Z,66.28
2022-11-16T06:07:20.092Z,66.53
2022-11-16T06:09:49.050Z,66.47
2022-11-16T06:12:18.319Z,66.80
2022-11-16T06:14:47.181Z,66.40
2022-11-16T06:17:17.884Z,66.60
2022-11-16T06:19:46.908Z,66.52
2022-11-16T06:22:16.195Z,65.81
2022-11-16T06:24:45.052Z,65.80
2022-11-16T06:27:14.291Z,66.44
2022-11-16T06:29:43.213Z,66.13
2022-11-16T06:32:12.460Z,66.14
2022-11-16T06:34:42.768Z,65.96
2022-11-16T06:37:12.047Z,66.12
2022-11-16T06:39:40.956Z,65.64
2022-11-16T06:42:10.220Z,65.98
2022-11-16T06:44:39.139Z,65.43
2022-11-16T06:47:08.453Z,66.02
2022-11-16T06:49:37.346Z,65.93
2022-11-16T06:52:08.055Z,66.36
2022-11-16T06:54:36.995Z,65.60
2022-11-16T06:57:06.308Z,66.14
2022-11-16T06:59:35.281Z,65.86
2022-11-16T07:02:04.646Z,65.96
2022-11-16T07:04:33.573Z,65.89
2022-11-16T07:07:02.874Z,65.42
2022-11-16T07:09:33.297Z,65.39
2022-11-16T07:12:02.682Z,65.14
2022-11-16T07:14:31.499Z,65.54
2022-11-16T07:17:05.220Z,64.75
2022-11-16T07:19:36.978Z,64.66
2022-11-16T07:22:06.503Z,65.18
2022-11-16T07:24:36.783Z,65.00
2022-11-16T07:27:06.537Z,65.25
2022-11-16T07:29:35.435Z,64.92
2022-11-16T07:32:04.656Z,64.30
2022-11-16T07:34:33.549Z,64.74
2022-11-16T07:37:02.855Z,64.49
2022-11-16T07:39:31.725Z,64.43
2022-11-16T07:42:02.449Z,64.39
2022-11-16T07:44:31.317Z,65.04
2022-11-16T07:47:01.869Z,64.86
2022-11-16T07:49:30.790Z,65.05
2022-11-16T07:52:00.143Z,64.95
2022-11-16T07:54:29.071Z,64.94
2022-11-16T07:56:58.275Z,64.63
2022-11-16T07:59:28.728Z,64.60
2022-11-16T08:01:59.453Z,64.80
2022-11-16T08:04:28.427Z,65.07
2022-11-16T08:06:57.806Z,65.27
2022-11-16T08:09:26.645Z,65.05
2022-11-16T08:11:55.856Z,64.86
2022-11-16T08:14:24.698Z,65.38
2022-11-16T08:16:55.344Z,64.74
2022-11-16T08:19:24.287Z,65.00
2022-11-16T08:21:53.465Z,64.89
2022-11-16T08:24:22.379Z,65.04
2022-11-16T08:26:51.816Z,64.89
2022-11-16T08:29:20.950Z,64.45
2022-11-16T08:31:50.234Z,64.45
2022-11-16T08:34:20.728Z,64.48
2022-11-16T08:36:50.124Z,64.66
2022-11-16T08:39:19.075Z,64.40
2022-11-16T08:41:48.448Z,64.46
2022-11-16T08:44:18.081Z,64.88
2022-11-16T08:46:49.290Z,64.57
2022-11-16T08:49:18.256Z,64.72
2022-11-16T08:51:48.965Z,64.86
2022-11-16T08:54:17.973Z,64.58
2022-11-16T08:56:47.224Z,64.44
2022-11-16T08:59:16.247Z,64.53
2022-11-16T09:01:45.496Z,64.33
2022-11-16T09:04:14.428Z,64.58
2022-11-16T09:06:43.598Z,64.51
2022-11-16T09:09:14.139Z,64.12
2022-11-16T09:11:43.448Z,64.08
2022-11-16T09:14:14.964Z,64.32
2022-11-16T09:16:44.219Z,64.47
2022-11-16T09:19:13.167Z,64.64
2022-11-16T09:21:42.677Z,64.61
2022-11-16T09:24:14.197Z,63.94
2022-11-16T09:26:43.448Z,64.21
2022-11-16T09:29:13.124Z,64.50
2022-11-16T09:31:42.456Z,64.49
2022-11-16T09:34:11.528Z,64.51
2022-11-16T09:36:40.918Z,64.76
2022-11-16T09:39:29.638Z,64.79
2022-11-16T09:42:06.663Z,64.54
2022-11-16T09:44:41.454Z,64.82
2022-11-16T09:47:15.029Z,64.35
2022-11-16T09:49:46.262Z,64.57
2022-11-16T09:52:19.639Z,64.71
2022-11-16T09:54:48.612Z,64.95
2022-11-16T09:57:24.819Z,64.99
2022-11-16T09:59:55.131Z,64.90
2022-11-16T10:02:25.259Z,65.06
2022-11-16T10:04:58.437Z,64.66
2022-11-16T10:07:30.326Z,64.94
2022-11-16T10:10:00.173Z,64.59
2022-11-16T10:12:31.003Z,65.05
2022-11-16T10:15:21.045Z,64.67
2022-11-16T10:17:59.968Z,64.40
2022-11-16T10:20:39.255Z,64.72
2022-11-16T10:23:10.146Z,64.97
2022-11-16T10:25:39.934Z,64.69
2022-11-16T10:28:14.850Z,64.93
2022-11-16T10:30:45.440Z,64.59
2022-11-16T10:33:15.956Z,64.72
2022-11-16T10:35:45.775Z,64.79
2022-11-16T10:38:15.277Z,64.95
2022-11-16T10:40:44.789Z,64.60
2022-11-16T10:43:16.267Z,64.68
2022-11-16T10:45:46.720Z,64.69
2022-11-16T10:48:17.440Z,64.42
2022-11-16T10:50:46.867Z,64.96
2022-11-16T10:53:16.387Z,64.58
2022-11-16T10:55:45.313Z,65.19
2022-11-16T10:58:15.923Z,64.79
2022-11-16T11:00:47.882Z,65.07
2022-11-16T11:03:19.807Z,64.97
2022-11-16T11:05:49.810Z,64.70
2022-11-16T11:08:26.045Z,64.90
2022-11-16T11:11:03.354Z,64.86
2022-11-16T11:13:35.011Z,64.92
2022-11-16T11:16:17.247Z,64.67
2022-11-16T11:18:54.994Z,64.92
2022-11-16T11:21:24.774Z,64.24
2022-11-16T11:24:06.036Z,64.96
2022-11-16T11:26:48.511Z,64.83
2022-11-16T11:29:21.997Z,64.89
2022-11-16T11:31:54.233Z,65.04
2022-11-16T11:34:24.387Z,64.71
2022-11-16T11:36:56.832Z,64.85
2022-11-16T11:39:28.345Z,64.64
2022-11-16T11:42:07.247Z,64.71
2022-11-16T11:44:49.865Z,64.90
2022-11-16T11:50:17.443Z,64.36
2022-11-16T11:52:57.606Z,63.76
2022-11-16T11:55:29.857Z,64.23
2022-11-16T11:57:59.376Z,64.00
2022-11-16T12:00:30.162Z,64.02
2022-11-16T12:03:23.165Z,63.46
2022-11-16T12:06:00.529Z,64.21
2022-11-16T12:08:33.545Z,63.91
2022-11-16T12:11:04.051Z,63.33
2022-11-16T12:13:45.705Z,63.53
2022-11-16T12:16:18.304Z,64.10
2022-11-16T12:18:51.547Z,64.39
2022-11-16T12:21:25.319Z,64.17
2022-11-16T12:24:04.598Z,63.82
2022-11-16T12:26:36.905Z,64.00
2022-11-16T12:29:08.512Z,63.87
2022-11-16T12:31:42.989Z,64.24
2022-11-16T12:34:13.564Z,64.03
2022-11-16T12:36:49.989Z,63.70
2022-11-16T12:39:21.786Z,63.65
2022-11-16T12:42:11.983Z,63.60
2022-11-16T12:44:50.354Z,63.49
2022-11-16T12:47:22.769Z,63.51
2022-11-16T12:50:06.616Z,63.70
2022-11-16T12:52:43.163Z,63.84
2022-11-16T12:55:25.846Z,63.82
2022-11-16T12:58:03.241Z,63.85
2022-11-16T13:00:32.812Z,63.83
2022-11-16T13:03:09.135Z,63.63
2022-11-16T13:05:41.878Z,64.11
2022-11-16T13:08:14.538Z,63.71
2022-11-16T13:10:45.661Z,63.85
2022-11-16T13:13:35.484Z,64.19
2022-11-16T13:16:05.572Z,63.83
2022-11-16T13:18:36.892Z,63.92
2022-11-16T13:21:06.526Z,63.79
2022-11-16T13:23:42.479Z,64.05
2022-11-16T13:26:12.453Z,63.72
2022-11-16T13:28:42.509Z,64.17
2022-11-16T13:31:12.141Z,63.80
2022-11-16T13:33:49.327Z,63.49
2022-11-16T13:36:39.427Z,63.83
2022-11-16T13:39:08.873Z,63.37
2022-11-16T13:41:40.574Z,63.51
2022-11-16T13:44:14.251Z,63.58
2022-11-16T13:46:55.662Z,63.52
2022-11-16T13:49:31.087Z,63.35
2022-11-16T13:52:17.292Z,63.82
2022-11-16T13:54:53.249Z,63.33
2022-11-16T13:57:24.121Z,63.35
2022-11-16T13:59:57.656Z,63.54
2022-11-16T14:02:30.339Z,62.95
2022-11-16T14:05:06.913Z,63.61
2022-11-16T14:07:42.959Z,63.81
2022-11-16T14:10:43.211Z,63.52
2022-11-16T14:13:27.556Z,63.53
2022-11-16T14:16:11.622Z,63.66
2022-11-16T14:18:42.019Z,63.55
2022-11-16T14:21:16.808Z,62.99
2022-11-16T14:23:52.226Z,63.05
2022-11-16T14:26:23.396Z,63.28
2022-11-16T14:29:10.016Z,63.28
2022-11-16T14:31:49.515Z,63.35
2022-11-16T14:34:20.433Z,63.47
2022-11-16T14:36:49.927Z,63.51
2022-11-16T14:39:26.046Z,63.56
2022-11-16T14:41:58.465Z,63.29
2022-11-16T14:44:33.770Z,63.72
2022-11-16T14:47:03.497Z,63.72
2022-11-16T14:49:35.428Z,63.47
2022-11-16T14:52:04.926Z,63.46
2022-11-16T14:54:35.530Z,63.76
2022-11-16T14:57:05.760Z,63.65
2022-11-16T14:59:34.745Z,63.06
2022-11-16T15:02:05.205Z,63.61
2022-11-16T15:04:35.646Z,63.43
2022-11-16T15:07:05.368Z,63.59
2022-11-16T15:09:34.770Z,63.60
2022-11-16T15:12:22.017Z,63.67
2022-11-16T15:14:51.753Z,63.50
2022-11-16T15:17:22.276Z,63.85
2022-11-16T15:19:56.563Z,63.64
2022-11-16T15:22:28.587Z,63.70
2022-11-16T15:24:58.105Z,63.85
2022-11-16T15:27:32.274Z,63.91
2022-11-16T15:30:02.210Z,63.31
2022-11-16T15:32:40.679Z,63.29
2022-11-16T15:35:15.552Z,63.15
2022-11-16T15:37:45.136Z,63.46
2022-11-16T15:40:14.391Z,63.36
2022-11-16T15:42:43.954Z,63.31
2022-11-16T15:45:17.317Z,63.69
2022-11-16T15:47:47.828Z,63.41
2022-11-16T15:50:18.325Z,63.33
2022-11-16T15:52:52.930Z,63.49
2022-11-16T15:55:23.921Z,63.53
2022-11-16T15:58:03.810Z,63.90
2022-11-16T16:00:33.172Z,63.66
2022-11-16T16:03:18.545Z,63.67
2022-11-16T16:05:47.725Z,63.34
2022-11-16T16:08:28.972Z,63.39
2022-11-16T16:11:12.877Z,63.53
2022-11-16T16:13:42.883Z,63.60
2022-11-16T16:16:13.192Z,63.32
2022-11-16T16:18:44.562Z,62.98
2022-11-16T16:21:14.254Z,63.19
2022-11-16T16:23:48.224Z,63.28
2022-11-16T16:26:17.510Z,63.04
2022-11-16T16:28:47.205Z,63.11
2022-11-16T16:31:18.724Z,63.21
2022-11-16T16:33:48.200Z,62.98
2022-11-16T16:36:17.308Z,63.63
2022-11-16T16:38:48.042Z,63.66
2022-11-16T16:41:23.702Z,63.53
2022-11-16T16:43:53.932Z,63.16
2022-11-16T16:46:22.904Z,63.53
2022-11-16T16:48:52.160Z,63.68
2022-11-16T16:51:21.124Z,63.29
2022-11-16T16:53:51.710Z,63.42
2022-11-16T16:56:20.871Z,63.32
2022-11-16T16:58:50.260Z,63.12
2022-11-16T17:01:21.325Z,63.05
2022-11-16T17:03:50.636Z,62.72
2022-11-16T17:06:20.139Z,63.11
2022-11-16T17:08:49.970Z,62.97
2022-11-16T17:11:24.877Z,62.98
2022-11-16T17:13:54.223Z,63.50
2022-11-16T17:16:23.547Z,63.11
2022-11-16T17:18:54.999Z,63.21
2022-11-16T17:21:23.950Z,62.88
2022-11-16T17:23:53.288Z,62.92
2022-11-16T17:26:24.840Z,63.31
2022-11-16T17:28:55.634Z,63.05
2022-11-16T17:31:25.077Z,63.28
2022-11-16T17:33:54.640Z,63.26
2022-11-16T17:36:28.347Z,63.17
2022-11-16T17:39:02.164Z,62.90
2022-11-16T17:41:32.591Z,63.32
2022-11-16T17:44:02.004Z,63.24
2022-11-16T17:46:30.892Z,63.20
2022-11-16T17:49:00.206Z,63.51
2022-11-16T17:51:29.948Z,63.21
2022-11-16T17:53:59.159Z,63.07
2022-11-16T17:56:28.425Z,63.36
2022-11-16T17:58:59.494Z,63.17
2022-11-16T18:01:28.748Z,62.92
2022-11-16T18:03:58.201Z,63.32
2022-11-16T18:06:27.127Z,63.04
2022-11-16T18:08:56.449Z,63.04
2022-11-16T18:11:26.243Z,63.09
2022-11-16T18:13:56.081Z,63.08
2022-11-16T18:16:30.940Z,62.92
2022-11-16T18:19:00.942Z,63.37
2022-11-16T18:21:29.995Z,63.08
2022-11-16T18:24:02.938Z,63.09
2022-11-16T18:26:31.841Z,62.94
2022-11-16T18:29:01.229Z,63.14
2022-11-16T18:31:33.049Z,63.07
2022-11-16T18:34:02.884Z,62.91
2022-11-16T18:36:31.824Z,63.01
2022-11-16T18:39:01.091Z,63.28
2022-11-16T18:41:30.019Z,62.96
2022-11-16T18:44:00.090Z,62.99
2022-11-16T18:46:34.075Z,63.27
2022-11-16T18:49:03.423Z,63.37
2022-11-16T18:51:33.267Z,62.92
2022-11-16T18:54:02.597Z,63.15
2022-11-16T18:56:31.651Z,62.76
2022-11-16T18:59:02.559Z,63.67
2022-11-16T19:01:31.798Z,63.29
2022-11-16T19:04:03.276Z,62.97
2022-11-16T19:06:32.677Z,62.90
2022-11-16T19:09:04.056Z,63.01
2022-11-16T19:11:33.070Z,63.18
2022-11-16T19:14:03.988Z,62.99
2022-11-16T19:16:32.980Z,63.06
2022-11-16T19:19:03.876Z,63.16
2022-11-16T19:21:32.838Z,63.45
2022-11-16T19:24:02.238Z,63.46
2022-11-16T19:26:31.757Z,63.12
2022-11-16T19:29:05.036Z,62.83
2022-11-16T19:31:34.603Z,63.00
2022-11-16T19:34:08.901Z,63.26
2022-11-16T19:36:38.153Z,63.52
2022-11-16T19:39:07.688Z,63.41
2022-11-16T19:41:36.717Z,63.61
2022-11-16T19:44:06.255Z,63.61
2022-11-16T19:46:36.000Z,63.21
2022-11-16T19:49:05.579Z,63.39
2022-11-16T19:51:36.268Z,63.26
2022-11-16T19:54:05.839Z,63.86
2022-11-16T19:56:34.889Z,63.11
2022-11-16T19:59:04.232Z,63.23
2022-11-16T20:01:33.261Z,63.22
2022-11-16T20:04:03.565Z,63.06
2022-11-16T20:06:33.382Z,63.11
2022-11-16T20:09:08.726Z,62.98
2022-11-16T20:11:38.641Z,62.92
2022-11-16T20:14:08.607Z,63.12
2022-11-16T20:16:40.961Z,63.33
2022-11-16T20:19:10.536Z,63.28
2022-11-16T20:21:40.084Z,63.49
2022-11-16T20:24:11.573Z,63.42
2022-11-16T20:26:42.367Z,63.16
2022-11-16T20:29:12.063Z,63.48
2022-11-16T20:31:42.959Z,63.38
2022-11-16T20:34:15.836Z,63.54
2022-11-16T20:36:48.621Z,63.67
2022-11-16T20:39:25.440Z,63.64
2022-11-16T20:41:54.424Z,63.71
2022-11-16T20:44:26.160Z,63.59
2022-11-16T20:46:54.992Z,63.45
2022-11-16T20:49:24.514Z,63.55
2022-11-16T20:51:53.476Z,63.62
2022-11-16T20:54:24.482Z,63.85
2022-11-16T20:56:54.791Z,63.74
2022-11-16T20:59:24.156Z,63.80
2022-11-16T21:01:55.904Z,63.52
2022-11-16T21:04:25.186Z,63.50
2022-11-16T21:06:54.178Z,63.46
2022-11-16T21:09:23.994Z,63.43
2022-11-16T21:12:11.864Z,63.48
2022-11-16T21:14:41.341Z,63.42
2022-11-16T21:17:10.289Z,63.34
2022-11-16T21:19:46.413Z,63.62
2022-11-16T21:22:32.262Z,63.21
2022-11-16T21:25:02.392Z,63.16
2022-11-16T21:27:32.926Z,63.38
2022-11-16T21:30:02.270Z,63.41
2022-11-16T21:32:31.908Z,63.18
2022-11-16T21:35:01.205Z,63.19
2022-11-16T21:37:30.129Z,63.23
2022-11-16T21:39:59.516Z,63.16
2022-11-16T21:42:28.573Z,63.00
2022-11-16T21:44:59.303Z,63.47
2022-11-16T21:47:29.268Z,62.94
2022-11-16T21:52:47.569Z,63.08
2022-11-16T21:55:16.976Z,63.26
2022-11-16T21:57:45.932Z,63.34
2022-11-16T22:00:17.380Z,63.03
2022-11-16T22:02:46.379Z,62.82
2022-11-16T22:05:33.275Z,62.91
2022-11-16T22:08:04.963Z,63.45
2022-11-16T22:10:34.481Z,63.04
2022-11-16T22:13:03.570Z,62.64
2022-11-16T22:15:34.313Z,62.76
2022-11-16T22:18:03.941Z,62.98
2022-11-16T22:20:33.291Z,62.98
2022-11-16T22:23:02.243Z,62.98
2022-11-16T22:25:31.700Z,62.74
2022-11-16T22:30:52.283Z,62.66
2022-11-16T22:33:21.647Z,62.79
2022-11-16T22:35:50.956Z,62.66
2022-11-16T22:38:22.193Z,62.55
2022-11-16T22:40:52.311Z,62.75
2022-11-16T22:43:21.553Z,62.82
2022-11-16T22:45:52.488Z,62.93
2022-11-16T22:48:21.431Z,62.98
2022-11-16T22:50:50.756Z,62.56
2022-11-16T22:53:19.774Z,62.59
2022-11-16T22:55:49.058Z,63.08
2022-11-16T22:58:18.827Z,62.94
2022-11-16T23:00:48.109Z,62.38
2022-11-16T23:03:18.489Z,62.43
2022-11-16T23:05:47.942Z,62.75
2022-11-16T23:08:17.074Z,62.77
2022-11-16T23:11:00.218Z,63.12
2022-11-16T23:13:46.473Z,62.84
2022-11-16T23:16:15.701Z,63.04
2022-11-16T23:18:46.011Z,62.91
2022-11-16T23:21:32.569Z,62.89
2022-11-16T23:24:21.363Z,63.45
2022-11-16T23:27:08.078Z,63.18
2022-11-16T23:29:37.163Z,62.82
2022-11-16T23:32:06.699Z,62.83
2022-11-16T23:34:38.808Z,63.15
2022-11-16T23:37:08.492Z,63.34
2022-11-16T23:39:37.447Z,63.13
2022-11-16T23:42:24.180Z,63.10
2022-11-16T23:44:53.298Z,62.89
2022-11-16T23:47:22.768Z,63.59
2022-11-16T23:49:53.276Z,63.17
2022-11-16T23:52:22.779Z,62.83
2022-11-16T23:54:51.992Z,62.79
2022-11-16T23:57:21.450Z,63.22
2022-11-16T23:59:50.506Z,63.10
